sensor_id;sensor_type;location;lat;lon;timestamp;temperature;humidity
1594;DHT22;790;47.000;16.084;2023-02-15T00:01:08;1.40;99.90
1594;DHT22;790;47.000;16.084;2023-02-15T00:03:35;1.40;99.90
1594;DHT22;790;47.000;16.084;2023-02-15T00:06:03;1.50;99.90
1594;DHT22;790;47.000;16.084;2023-02-15T00:08:30;1.50;99.90
1594;DHT22;790;47.000;16.084;2023-02-15T00:11:05;1.60;99.90
1594;DHT22;790;47.000;16.084;2023-02-15T00:13:34;1.70;99.90
1594;DHT22;790;47.000;16.084;2023-02-15T00:16:03;1.70;99.90
1594;DHT22;790;47.000;16.084;2023-02-15T00:18:31;1.70;99.90
1594;DHT22;790;47.000;16.084;2023-02-15T00:21:02;1.70;99.90
1594;DHT22;790;47.000;16.084;2023-02-15T00:23:29;1.80;99.90
1594;DHT22;790;47.000;16.084;2023-02-15T00:26:04;1.80;99.90
1594;DHT22;790;47.000;16.084;2023-02-15T00:28:32;1.80;99.90
1594;DHT22;790;47.000;16.084;2023-02-15T00:31:08;1.80;99.90
1594;DHT22;790;47.000;16.084;2023-02-15T00:33:36;1.80;99.90
1594;DHT22;790;47.000;16.084;2023-02-15T00:36:04;1.90;99.90
1594;DHT22;790;47.000;16.084;2023-02-15T00:38:32;1.90;99.90
1594;DHT22;790;47.000;16.084;2023-02-15T00:41:01;1.90;99.90
1594;DHT22;790;47.000;16.084;2023-02-15T00:43:30;1.90;99.90
1594;DHT22;790;47.000;16.084;2023-02-15T00:45:58;1.90;99.90
1594;DHT22;790;47.000;16.084;2023-02-15T00:48:26;1.90;99.90
1594;DHT22;790;47.000;16.084;2023-02-15T00:50:55;2.00;99.90
1594;DHT22;790;47.000;16.084;2023-02-15T00:53:23;2.00;99.90
1594;DHT22;790;47.000;16.084;2023-02-15T00:55:50;2.00;99.90
1594;DHT22;790;47.000;16.084;2023-02-15T00:58:17;2.00;99.90
1594;DHT22;790;47.000;16.084;2023-02-15T01:00:46;1.90;99.90
1594;DHT22;790;47.000;16.084;2023-02-15T01:03:14;2.00;99.90
1594;DHT22;790;47.000;16.084;2023-02-15T01:05:48;2.00;99.90
1594;DHT22;790;47.000;16.084;2023-02-15T01:08:17;1.90;99.90
1594;DHT22;790;47.000;16.084;2023-02-15T01:10:44;1.90;99.90
1594;DHT22;790;47.000;16.084;2023-02-15T01:13:14;2.00;99.90
1594;DHT22;790;47.000;16.084;2023-02-15T01:15:42;2.00;99.90
1594;DHT22;790;47.000;16.084;2023-02-15T01:18:09;2.10;99.90
1594;DHT22;790;47.000;16.084;2023-02-15T01:20:38;2.10;99.90
1594;DHT22;790;47.000;16.084;2023-02-15T01:23:08;2.10;99.90
1594;DHT22;790;47.000;16.084;2023-02-15T01:25:36;2.10;99.90
1594;DHT22;790;47.000;16.084;2023-02-15T01:28:03;2.10;99.90
1594;DHT22;790;47.000;16.084;2023-02-15T01:30:31;2.10;99.90
1594;DHT22;790;47.000;16.084;2023-02-15T01:32:59;2.10;99.90
1594;DHT22;790;47.000;16.084;2023-02-15T01:35:27;2.20;99.90
1594;DHT22;790;47.000;16.084;2023-02-15T01:37:55;2.20;99.90
1594;DHT22;790;47.000;16.084;2023-02-15T01:40:24;2.20;99.90
1594;DHT22;790;47.000;16.084;2023-02-15T01:42:51;2.20;99.90
1594;DHT22;790;47.000;16.084;2023-02-15T01:45:22;2.20;99.90
1594;DHT22;790;47.000;16.084;2023-02-15T01:47:52;2.20;99.90
1594;DHT22;790;47.000;16.084;2023-02-15T01:50:24;2.20;99.90
1594;DHT22;790;47.000;16.084;2023-02-15T01:52:56;2.20;99.90
1594;DHT22;790;47.000;16.084;2023-02-15T01:55:29;2.20;99.90
1594;DHT22;790;47.000;16.084;2023-02-15T01:57:57;2.30;99.90
1594;DHT22;790;47.000;16.084;2023-02-15T02:00:24;2.20;99.90
1594;DHT22;790;47.000;16.084;2023-02-15T02:02:54;2.30;99.90
1594;DHT22;790;47.000;16.084;2023-02-15T02:05:22;2.30;99.90
1594;DHT22;790;47.000;16.084;2023-02-15T02:07:52;2.30;99.90
1594;DHT22;790;47.000;16.084;2023-02-15T02:10:23;2.30;99.90
1594;DHT22;790;47.000;16.084;2023-02-15T02:12:53;2.40;99.90
1594;DHT22;790;47.000;16.084;2023-02-15T02:15:24;2.40;99.90
1594;DHT22;790;47.000;16.084;2023-02-15T02:18:03;2.40;99.90
1594;DHT22;790;47.000;16.084;2023-02-15T02:20:58;2.40;99.90
1594;DHT22;790;47.000;16.084;2023-02-15T02:23:46;2.40;99.90
1594;DHT22;790;47.000;16.084;2023-02-15T02:26:33;2.50;99.90
1594;DHT22;790;47.000;16.084;2023-02-15T02:29:31;2.50;99.90
1594;DHT22;790;47.000;16.084;2023-02-15T02:34:55;2.50;99.90
1594;DHT22;790;47.000;16.084;2023-02-15T02:37:33;2.50;99.90
1594;DHT22;790;47.000;16.084;2023-02-15T02:40:06;2.50;99.90
1594;DHT22;790;47.000;16.084;2023-02-15T02:42:41;2.50;99.90
1594;DHT22;790;47.000;16.084;2023-02-15T02:45:11;2.50;99.90
1594;DHT22;790;47.000;16.084;2023-02-15T02:47:43;2.50;99.90
1594;DHT22;790;47.000;16.084;2023-02-15T02:50:15;2.50;99.90
1594;DHT22;790;47.000;16.084;2023-02-15T02:52:44;2.50;99.90
1594;DHT22;790;47.000;16.084;2023-02-15T02:55:16;2.50;99.90
1594;DHT22;790;47.000;16.084;2023-02-15T02:57:51;2.50;99.90
1594;DHT22;790;47.000;16.084;2023-02-15T03:00:21;2.50;99.90
1594;DHT22;790;47.000;16.084;2023-02-15T03:02:52;2.60;99.90
1594;DHT22;790;47.000;16.084;2023-02-15T03:05:25;2.60;99.90
1594;DHT22;790;47.000;16.084;2023-02-15T03:07:54;2.60;99.90
1594;DHT22;790;47.000;16.084;2023-02-15T03:10:23;2.60;99.90
1594;DHT22;790;47.000;16.084;2023-02-15T03:12:52;2.60;99.90
1594;DHT22;790;47.000;16.084;2023-02-15T03:15:20;2.50;99.90
1594;DHT22;790;47.000;16.084;2023-02-15T03:17:54;2.60;99.90
1594;DHT22;790;47.000;16.084;2023-02-15T03:20:27;2.60;99.90
1594;DHT22;790;47.000;16.084;2023-02-15T03:23:00;2.70;99.90
1594;DHT22;790;47.000;16.084;2023-02-15T03:25:31;2.60;99.90
1594;DHT22;790;47.000;16.084;2023-02-15T03:28:03;2.60;99.90
1594;DHT22;790;47.000;16.084;2023-02-15T03:30:32;2.60;99.90
1594;DHT22;790;47.000;16.084;2023-02-15T03:33:01;2.70;99.90
1594;DHT22;790;47.000;16.084;2023-02-15T03:35:36;2.60;99.90
1594;DHT22;790;47.000;16.084;2023-02-15T03:38:07;2.60;99.90
1594;DHT22;790;47.000;16.084;2023-02-15T03:40:38;2.70;99.90
1594;DHT22;790;47.000;16.084;2023-02-15T03:43:29;2.70;99.90
1594;DHT22;790;47.000;16.084;2023-02-15T03:46:02;2.60;99.90
1594;DHT22;790;47.000;16.084;2023-02-15T03:48:35;2.60;99.90
1594;DHT22;790;47.000;16.084;2023-02-15T03:51:07;2.60;99.90
1594;DHT22;790;47.000;16.084;2023-02-15T03:53:55;2.60;99.90
1594;DHT22;790;47.000;16.084;2023-02-15T03:56:22;2.60;99.90
1594;DHT22;790;47.000;16.084;2023-02-15T03:58:50;2.70;99.90
1594;DHT22;790;47.000;16.084;2023-02-15T04:01:34;2.60;99.90
1594;DHT22;790;47.000;16.084;2023-02-15T04:04:23;2.70;99.90
1594;DHT22;790;47.000;16.084;2023-02-15T04:06:52;2.80;99.90
1594;DHT22;790;47.000;16.084;2023-02-15T04:09:19;2.70;99.90
1594;DHT22;790;47.000;16.084;2023-02-15T04:12:04;2.70;99.90
1594;DHT22;790;47.000;16.084;2023-02-15T04:14:31;2.70;99.90
1594;DHT22;790;47.000;16.084;2023-02-15T04:17:15;2.70;99.90
1594;DHT22;790;47.000;16.084;2023-02-15T04:19:42;2.70;99.90
1594;DHT22;790;47.000;16.084;2023-02-15T04:22:28;2.80;99.90
1594;DHT22;790;47.000;16.084;2023-02-15T04:25:13;2.80;99.90
1594;DHT22;790;47.000;16.084;2023-02-15T04:27:42;2.80;99.90
1594;DHT22;790;47.000;16.084;2023-02-15T04:30:11;2.80;99.90
1594;DHT22;790;47.000;16.084;2023-02-15T04:32:38;2.80;99.90
1594;DHT22;790;47.000;16.084;2023-02-15T04:35:06;2.80;99.90
1594;DHT22;790;47.000;16.084;2023-02-15T04:37:35;2.80;99.90
1594;DHT22;790;47.000;16.084;2023-02-15T04:40:03;2.70;99.90
1594;DHT22;790;47.000;16.084;2023-02-15T04:42:30;2.80;99.90
1594;DHT22;790;47.000;16.084;2023-02-15T04:44:57;2.80;99.90
1594;DHT22;790;47.000;16.084;2023-02-15T04:47:25;2.80;99.90
1594;DHT22;790;47.000;16.084;2023-02-15T04:49:52;2.80;99.90
1594;DHT22;790;47.000;16.084;2023-02-15T04:52:19;2.80;99.90
1594;DHT22;790;47.000;16.084;2023-02-15T04:54:47;2.80;99.90
1594;DHT22;790;47.000;16.084;2023-02-15T04:57:14;2.90;99.90
1594;DHT22;790;47.000;16.084;2023-02-15T04:59:41;2.80;99.90
1594;DHT22;790;47.000;16.084;2023-02-15T05:02:09;2.80;99.90
1594;DHT22;790;47.000;16.084;2023-02-15T05:04:36;2.90;99.90
1594;DHT22;790;47.000;16.084;2023-02-15T05:07:03;3.00;99.90
1594;DHT22;790;47.000;16.084;2023-02-15T05:09:30;3.00;99.90
1594;DHT22;790;47.000;16.084;2023-02-15T05:11:59;2.90;99.90
1594;DHT22;790;47.000;16.084;2023-02-15T05:14:26;3.00;99.90
1594;DHT22;790;47.000;16.084;2023-02-15T05:16:53;3.00;99.90
1594;DHT22;790;47.000;16.084;2023-02-15T05:19:20;3.00;99.90
1594;DHT22;790;47.000;16.084;2023-02-15T05:21:50;2.90;99.90
1594;DHT22;790;47.000;16.084;2023-02-15T05:24:17;3.00;99.90
1594;DHT22;790;47.000;16.084;2023-02-15T05:27:03;2.90;99.90
1594;DHT22;790;47.000;16.084;2023-02-15T05:29:48;2.90;99.90
1594;DHT22;790;47.000;16.084;2023-02-15T05:32:15;2.90;99.90
1594;DHT22;790;47.000;16.084;2023-02-15T05:34:42;2.80;99.90
1594;DHT22;790;47.000;16.084;2023-02-15T05:37:09;2.90;99.90
1594;DHT22;790;47.000;16.084;2023-02-15T05:39:37;2.90;99.90
1594;DHT22;790;47.000;16.084;2023-02-15T05:42:06;2.90;99.90
1594;DHT22;790;47.000;16.084;2023-02-15T05:44:33;2.90;99.90
1594;DHT22;790;47.000;16.084;2023-02-15T05:47:00;2.90;99.90
1594;DHT22;790;47.000;16.084;2023-02-15T05:49:28;2.80;99.90
1594;DHT22;790;47.000;16.084;2023-02-15T05:51:57;2.80;99.90
1594;DHT22;790;47.000;16.084;2023-02-15T05:54:24;2.80;99.90
1594;DHT22;790;47.000;16.084;2023-02-15T05:56:51;2.80;99.90
1594;DHT22;790;47.000;16.084;2023-02-15T05:59:20;2.80;99.90
1594;DHT22;790;47.000;16.084;2023-02-15T06:01:47;2.90;99.90
1594;DHT22;790;47.000;16.084;2023-02-15T06:04:14;2.90;99.90
1594;DHT22;790;47.000;16.084;2023-02-15T06:06:41;2.90;99.90
1594;DHT22;790;47.000;16.084;2023-02-15T06:09:13;2.80;99.90
1594;DHT22;790;47.000;16.084;2023-02-15T06:11:40;2.90;99.90
1594;DHT22;790;47.000;16.084;2023-02-15T06:14:07;2.90;99.90
1594;DHT22;790;47.000;16.084;2023-02-15T06:16:36;2.90;99.90
1594;DHT22;790;47.000;16.084;2023-02-15T06:19:03;2.90;99.90
1594;DHT22;790;47.000;16.084;2023-02-15T06:21:30;2.90;99.90
1594;DHT22;790;47.000;16.084;2023-02-15T06:23:58;3.00;99.90
1594;DHT22;790;47.000;16.084;2023-02-15T06:26:25;3.00;99.90
1594;DHT22;790;47.000;16.084;2023-02-15T06:28:52;3.00;99.90
1594;DHT22;790;47.000;16.084;2023-02-15T06:31:19;3.10;99.90
1594;DHT22;790;47.000;16.084;2023-02-15T06:33:48;3.10;99.90
1594;DHT22;790;47.000;16.084;2023-02-15T06:36:15;3.10;99.90
1594;DHT22;790;47.000;16.084;2023-02-15T06:38:42;3.10;99.90
1594;DHT22;790;47.000;16.084;2023-02-15T06:41:10;3.10;99.90
1594;DHT22;790;47.000;16.084;2023-02-15T06:43:37;3.10;99.90
1594;DHT22;790;47.000;16.084;2023-02-15T06:46:04;3.00;99.90
1594;DHT22;790;47.000;16.084;2023-02-15T06:48:31;3.00;99.90
1594;DHT22;790;47.000;16.084;2023-02-15T06:50:59;3.10;99.90
1594;DHT22;790;47.000;16.084;2023-02-15T06:53:27;3.10;99.90
1594;DHT22;790;47.000;16.084;2023-02-15T06:56:00;3.10;99.90
1594;DHT22;790;47.000;16.084;2023-02-15T06:58:32;3.10;99.90
1594;DHT22;790;47.000;16.084;2023-02-15T07:00:59;3.10;99.90
1594;DHT22;790;47.000;16.084;2023-02-15T07:03:26;3.20;99.90
1594;DHT22;790;47.000;16.084;2023-02-15T07:05:54;3.20;99.90
1594;DHT22;790;47.000;16.084;2023-02-15T07:08:23;3.10;99.90
1594;DHT22;790;47.000;16.084;2023-02-15T07:10:51;3.20;99.90
1594;DHT22;790;47.000;16.084;2023-02-15T07:13:19;3.20;99.90
1594;DHT22;790;47.000;16.084;2023-02-15T07:15:46;3.20;99.90
1594;DHT22;790;47.000;16.084;2023-02-15T07:18:13;3.20;99.90
1594;DHT22;790;47.000;16.084;2023-02-15T07:20:41;3.30;99.90
1594;DHT22;790;47.000;16.084;2023-02-15T07:23:08;3.30;99.90
1594;DHT22;790;47.000;16.084;2023-02-15T07:25:36;3.30;99.90
1594;DHT22;790;47.000;16.084;2023-02-15T07:28:04;3.40;99.90
1594;DHT22;790;47.000;16.084;2023-02-15T07:30:31;3.40;99.90
1594;DHT22;790;47.000;16.084;2023-02-15T07:32:59;3.40;99.90
1594;DHT22;790;47.000;16.084;2023-02-15T07:35:47;3.30;99.90
1594;DHT22;790;47.000;16.084;2023-02-15T07:38:14;3.30;99.90
1594;DHT22;790;47.000;16.084;2023-02-15T07:40:43;3.40;99.90
1594;DHT22;790;47.000;16.084;2023-02-15T07:43:11;3.40;99.90
1594;DHT22;790;47.000;16.084;2023-02-15T07:45:38;3.50;99.90
1594;DHT22;790;47.000;16.084;2023-02-15T07:48:06;3.50;99.90
1594;DHT22;790;47.000;16.084;2023-02-15T07:50:33;3.50;99.90
1594;DHT22;790;47.000;16.084;2023-02-15T07:53:01;3.60;99.90
1594;DHT22;790;47.000;16.084;2023-02-15T07:55:29;3.70;99.90
1594;DHT22;790;47.000;16.084;2023-02-15T07:57:57;3.70;99.90
1594;DHT22;790;47.000;16.084;2023-02-15T08:00:24;3.70;99.90
1594;DHT22;790;47.000;16.084;2023-02-15T08:02:54;3.70;99.90
1594;DHT22;790;47.000;16.084;2023-02-15T08:05:35;3.80;99.90
1594;DHT22;790;47.000;16.084;2023-02-15T08:08:02;3.80;99.90
1594;DHT22;790;47.000;16.084;2023-02-15T08:10:30;3.90;99.90
1594;DHT22;790;47.000;16.084;2023-02-15T08:13:12;4.00;99.90
1594;DHT22;790;47.000;16.084;2023-02-15T08:15:39;4.10;99.90
1594;DHT22;790;47.000;16.084;2023-02-15T08:18:07;4.10;99.90
1594;DHT22;790;47.000;16.084;2023-02-15T08:20:34;4.20;99.90
1594;DHT22;790;47.000;16.084;2023-02-15T08:23:01;4.20;99.90
1594;DHT22;790;47.000;16.084;2023-02-15T08:25:28;4.20;99.90
1594;DHT22;790;47.000;16.084;2023-02-15T08:27:55;4.20;99.90
1594;DHT22;790;47.000;16.084;2023-02-15T08:30:24;4.30;99.90
1594;DHT22;790;47.000;16.084;2023-02-15T08:32:51;4.30;99.90
1594;DHT22;790;47.000;16.084;2023-02-15T08:35:18;4.30;99.90
1594;DHT22;790;47.000;16.084;2023-02-15T08:37:45;4.30;99.90
1594;DHT22;790;47.000;16.084;2023-02-15T08:40:13;4.40;99.90
1594;DHT22;790;47.000;16.084;2023-02-15T08:42:40;4.30;99.90
1594;DHT22;790;47.000;16.084;2023-02-15T08:45:08;4.40;99.90
1594;DHT22;790;47.000;16.084;2023-02-15T08:47:36;4.40;99.90
1594;DHT22;790;47.000;16.084;2023-02-15T08:50:05;4.40;99.90
1594;DHT22;790;47.000;16.084;2023-02-15T08:52:32;4.40;99.90
1594;DHT22;790;47.000;16.084;2023-02-15T08:54:59;4.50;99.90
1594;DHT22;790;47.000;16.084;2023-02-15T08:57:27;4.50;99.90
1594;DHT22;790;47.000;16.084;2023-02-15T08:59:55;4.50;99.90
1594;DHT22;790;47.000;16.084;2023-02-15T09:02:22;4.40;99.90
1594;DHT22;790;47.000;16.084;2023-02-15T09:04:50;4.50;99.90
1594;DHT22;790;47.000;16.084;2023-02-15T09:07:18;4.50;99.90
1594;DHT22;790;47.000;16.084;2023-02-15T09:09:45;4.50;99.90
1594;DHT22;790;47.000;16.084;2023-02-15T09:12:13;4.60;99.90
1594;DHT22;790;47.000;16.084;2023-02-15T09:14:40;4.60;99.90
1594;DHT22;790;47.000;16.084;2023-02-15T09:17:07;4.70;99.90
1594;DHT22;790;47.000;16.084;2023-02-15T09:19:34;4.70;99.90
1594;DHT22;790;47.000;16.084;2023-02-15T09:22:03;4.80;99.90
1594;DHT22;790;47.000;16.084;2023-02-15T09:24:32;4.80;99.90
1594;DHT22;790;47.000;16.084;2023-02-15T09:27:00;4.80;99.90
1594;DHT22;790;47.000;16.084;2023-02-15T09:29:27;4.80;99.90
1594;DHT22;790;47.000;16.084;2023-02-15T09:31:54;4.90;99.90
1594;DHT22;790;47.000;16.084;2023-02-15T09:34:22;5.00;99.90
1594;DHT22;790;47.000;16.084;2023-02-15T09:36:50;5.00;99.90
1594;DHT22;790;47.000;16.084;2023-02-15T09:39:21;5.00;99.90
1594;DHT22;790;47.000;16.084;2023-02-15T09:45:13;5.10;99.90
1594;DHT22;790;47.000;16.084;2023-02-15T09:50:52;5.10;99.90
1594;DHT22;790;47.000;16.084;2023-02-15T09:53:33;5.20;99.90
1594;DHT22;790;47.000;16.084;2023-02-15T09:56:09;5.20;99.90
1594;DHT22;790;47.000;16.084;2023-02-15T09:59:02;5.10;99.90
1594;DHT22;790;47.000;16.084;2023-02-15T10:01:37;5.20;99.90
1594;DHT22;790;47.000;16.084;2023-02-15T10:04:27;5.30;99.90
1594;DHT22;790;47.000;16.084;2023-02-15T10:07:08;5.30;99.90
1594;DHT22;790;47.000;16.084;2023-02-15T10:09:56;5.40;99.90
1594;DHT22;790;47.000;16.084;2023-02-15T10:12:43;5.40;99.90
1594;DHT22;790;47.000;16.084;2023-02-15T10:15:23;5.40;99.90
1594;DHT22;790;47.000;16.084;2023-02-15T10:18:03;5.50;99.90
1594;DHT22;790;47.000;16.084;2023-02-15T10:20:49;5.50;99.90
1594;DHT22;790;47.000;16.084;2023-02-15T10:23:42;5.60;99.90
1594;DHT22;790;47.000;16.084;2023-02-15T10:26:17;5.60;99.90
1594;DHT22;790;47.000;16.084;2023-02-15T10:28:49;5.80;99.90
1594;DHT22;790;47.000;16.084;2023-02-15T10:31:32;5.90;99.90
1594;DHT22;790;47.000;16.084;2023-02-15T10:34:15;5.90;99.90
1594;DHT22;790;47.000;16.084;2023-02-15T10:39:42;6.10;99.90
1594;DHT22;790;47.000;16.084;2023-02-15T10:42:19;6.00;99.90
1594;DHT22;790;47.000;16.084;2023-02-15T10:44:59;6.00;99.90
1594;DHT22;790;47.000;16.084;2023-02-15T10:47:53;6.00;99.90
1594;DHT22;790;47.000;16.084;2023-02-15T10:50:45;6.00;99.90
1594;DHT22;790;47.000;16.084;2023-02-15T10:53:31;6.00;99.90
1594;DHT22;790;47.000;16.084;2023-02-15T10:56:08;6.00;99.90
1594;DHT22;790;47.000;16.084;2023-02-15T10:58:49;6.00;99.90
1594;DHT22;790;47.000;16.084;2023-02-15T11:01:23;6.00;99.90
1594;DHT22;790;47.000;16.084;2023-02-15T11:04:08;6.00;99.90
1594;DHT22;790;47.000;16.084;2023-02-15T11:06:39;6.00;99.90
1594;DHT22;790;47.000;16.084;2023-02-15T11:09:10;6.00;99.90
1594;DHT22;790;47.000;16.084;2023-02-15T11:11:42;6.00;99.90
1594;DHT22;790;47.000;16.084;2023-02-15T11:14:14;6.10;99.90
1594;DHT22;790;47.000;16.084;2023-02-15T11:16:46;6.20;99.90
1594;DHT22;790;47.000;16.084;2023-02-15T11:19:20;6.30;99.90
1594;DHT22;790;47.000;16.084;2023-02-15T11:21:51;6.20;99.90
1594;DHT22;790;47.000;16.084;2023-02-15T11:24:20;6.20;99.90
1594;DHT22;790;47.000;16.084;2023-02-15T11:26:50;6.40;99.90
1594;DHT22;790;47.000;16.084;2023-02-15T11:29:22;6.30;99.90
1594;DHT22;790;47.000;16.084;2023-02-15T11:31:54;6.40;99.90
1594;DHT22;790;47.000;16.084;2023-02-15T11:34:25;6.40;99.90
1594;DHT22;790;47.000;16.084;2023-02-15T11:36:55;6.40;99.90
1594;DHT22;790;47.000;16.084;2023-02-15T11:39:26;6.40;99.90
1594;DHT22;790;47.000;16.084;2023-02-15T11:42:01;6.30;99.90
1594;DHT22;790;47.000;16.084;2023-02-15T11:44:32;6.40;99.90
1594;DHT22;790;47.000;16.084;2023-02-15T11:47:07;6.40;99.90
1594;DHT22;790;47.000;16.084;2023-02-15T11:49:35;6.40;99.90
1594;DHT22;790;47.000;16.084;2023-02-15T11:52:06;6.40;99.90
1594;DHT22;790;47.000;16.084;2023-02-15T11:54:36;6.50;99.90
1594;DHT22;790;47.000;16.084;2023-02-15T11:57:13;6.60;99.90
1594;DHT22;790;47.000;16.084;2023-02-15T11:59:44;6.70;99.90
1594;DHT22;790;47.000;16.084;2023-02-15T12:02:17;6.80;99.90
1594;DHT22;790;47.000;16.084;2023-02-15T12:04:49;6.90;99.90
1594;DHT22;790;47.000;16.084;2023-02-15T12:07:24;6.90;99.90
1594;DHT22;790;47.000;16.084;2023-02-15T12:09:57;7.00;99.90
1594;DHT22;790;47.000;16.084;2023-02-15T12:12:27;7.00;99.90
1594;DHT22;790;47.000;16.084;2023-02-15T12:14:56;7.10;99.90
1594;DHT22;790;47.000;16.084;2023-02-15T12:17:26;7.10;99.90
1594;DHT22;790;47.000;16.084;2023-02-15T12:19:55;7.10;99.90
1594;DHT22;790;47.000;16.084;2023-02-15T12:22:25;7.10;99.90
1594;DHT22;790;47.000;16.084;2023-02-15T12:24:55;6.90;99.90
1594;DHT22;790;47.000;16.084;2023-02-15T12:27:25;6.90;99.90
1594;DHT22;790;47.000;16.084;2023-02-15T12:29:56;7.00;99.90
1594;DHT22;790;47.000;16.084;2023-02-15T12:32:29;6.90;99.90
1594;DHT22;790;47.000;16.084;2023-02-15T12:35:01;6.90;99.90
1594;DHT22;790;47.000;16.084;2023-02-15T12:37:30;6.80;99.90
1594;DHT22;790;47.000;16.084;2023-02-15T12:40:02;6.90;99.90
1594;DHT22;790;47.000;16.084;2023-02-15T12:42:45;6.80;99.90
1594;DHT22;790;47.000;16.084;2023-02-15T12:45:26;6.90;99.90
1594;DHT22;790;47.000;16.084;2023-02-15T12:48:17;7.00;99.90
1594;DHT22;790;47.000;16.084;2023-02-15T12:50:45;7.10;99.90
1594;DHT22;790;47.000;16.084;2023-02-15T12:53:17;7.20;99.90
1594;DHT22;790;47.000;16.084;2023-02-15T12:55:53;7.20;99.90
1594;DHT22;790;47.000;16.084;2023-02-15T12:58:23;7.20;99.90
1594;DHT22;790;47.000;16.084;2023-02-15T13:01:12;7.20;99.90
1594;DHT22;790;47.000;16.084;2023-02-15T13:03:56;7.20;99.90
1594;DHT22;790;47.000;16.084;2023-02-15T13:06:25;7.20;99.90
1594;DHT22;790;47.000;16.084;2023-02-15T13:08:54;7.20;99.90
1594;DHT22;790;47.000;16.084;2023-02-15T13:11:25;7.20;99.90
1594;DHT22;790;47.000;16.084;2023-02-15T13:13:56;7.30;99.90
1594;DHT22;790;47.000;16.084;2023-02-15T13:16:29;7.30;99.90
1594;DHT22;790;47.000;16.084;2023-02-15T13:19:03;7.40;99.90
1594;DHT22;790;47.000;16.084;2023-02-15T13:21:35;7.30;99.90
1594;DHT22;790;47.000;16.084;2023-02-15T13:24:06;7.30;99.90
1594;DHT22;790;47.000;16.084;2023-02-15T13:26:35;7.40;99.90
1594;DHT22;790;47.000;16.084;2023-02-15T13:29:06;7.50;99.90
1594;DHT22;790;47.000;16.084;2023-02-15T13:31:35;7.40;99.90
1594;DHT22;790;47.000;16.084;2023-02-15T13:34:10;7.50;99.90
1594;DHT22;790;47.000;16.084;2023-02-15T13:36:44;7.40;99.90
1594;DHT22;790;47.000;16.084;2023-02-15T13:39:22;7.30;99.90
1594;DHT22;790;47.000;16.084;2023-02-15T13:41:56;7.40;99.90
1594;DHT22;790;47.000;16.084;2023-02-15T13:47:25;7.30;99.90
1594;DHT22;790;47.000;16.084;2023-02-15T13:50:17;7.30;99.90
1594;DHT22;790;47.000;16.084;2023-02-15T13:52:53;7.30;99.90
1594;DHT22;790;47.000;16.084;2023-02-15T13:55:36;7.30;99.90
1594;DHT22;790;47.000;16.084;2023-02-15T13:58:36;7.30;99.90
1594;DHT22;790;47.000;16.084;2023-02-15T14:01:10;7.40;99.90
1594;DHT22;790;47.000;16.084;2023-02-15T14:03:56;7.40;99.90
1594;DHT22;790;47.000;16.084;2023-02-15T14:06:46;7.30;99.90
1594;DHT22;790;47.000;16.084;2023-02-15T14:09:23;7.40;99.90
1594;DHT22;790;47.000;16.084;2023-02-15T14:12:03;7.40;99.90
1594;DHT22;790;47.000;16.084;2023-02-15T14:14:52;7.40;99.90
1594;DHT22;790;47.000;16.084;2023-02-15T14:17:34;7.40;99.90
1594;DHT22;790;47.000;16.084;2023-02-15T14:20:06;7.40;99.90
1594;DHT22;790;47.000;16.084;2023-02-15T14:22:40;7.40;99.90
1594;DHT22;790;47.000;16.084;2023-02-15T14:25:20;7.40;99.90
1594;DHT22;790;47.000;16.084;2023-02-15T14:27:59;7.30;99.90
1594;DHT22;790;47.000;16.084;2023-02-15T14:30:32;7.30;99.90
1594;DHT22;790;47.000;16.084;2023-02-15T14:33:05;7.30;99.90
1594;DHT22;790;47.000;16.084;2023-02-15T14:35:34;7.30;99.90
1594;DHT22;790;47.000;16.084;2023-02-15T14:38:09;7.30;99.90
1594;DHT22;790;47.000;16.084;2023-02-15T14:40:45;7.30;99.90
1594;DHT22;790;47.000;16.084;2023-02-15T14:43:48;7.20;99.90
1594;DHT22;790;47.000;16.084;2023-02-15T14:46:23;7.10;99.90
1594;DHT22;790;47.000;16.084;2023-02-15T14:48:55;7.00;99.90
1594;DHT22;790;47.000;16.084;2023-02-15T14:52:03;6.90;99.90
1594;DHT22;790;47.000;16.084;2023-02-15T14:54:59;6.80;99.90
1594;DHT22;790;47.000;16.084;2023-02-15T14:57:27;6.80;99.90
1594;DHT22;790;47.000;16.084;2023-02-15T14:59:59;6.70;99.90
1594;DHT22;790;47.000;16.084;2023-02-15T15:02:30;6.60;99.90
1594;DHT22;790;47.000;16.084;2023-02-15T15:05:07;6.50;99.90
1594;DHT22;790;47.000;16.084;2023-02-15T15:07:41;6.60;99.90
1594;DHT22;790;47.000;16.084;2023-02-15T15:10:36;6.50;99.90
1594;DHT22;790;47.000;16.084;2023-02-15T15:13:35;6.50;99.90
1594;DHT22;790;47.000;16.084;2023-02-15T15:19:04;6.50;99.90
1594;DHT22;790;47.000;16.084;2023-02-15T15:21:53;6.40;99.90
1594;DHT22;790;47.000;16.084;2023-02-15T15:24:48;6.40;99.90
1594;DHT22;790;47.000;16.084;2023-02-15T15:42:55;5.90;99.90
1594;DHT22;790;47.000;16.084;2023-02-15T15:45:49;5.80;99.90
1594;DHT22;790;47.000;16.084;2023-02-15T15:48:30;5.70;99.90
1594;DHT22;790;47.000;16.084;2023-02-15T15:51:02;5.70;99.90
1594;DHT22;790;47.000;16.084;2023-02-15T15:53:34;5.60;99.90
1594;DHT22;790;47.000;16.084;2023-02-15T15:56:08;5.60;99.90
1594;DHT22;790;47.000;16.084;2023-02-15T15:58:42;5.60;99.90
1594;DHT22;790;47.000;16.084;2023-02-15T16:01:11;5.40;99.90
1594;DHT22;790;47.000;16.084;2023-02-15T16:03:49;5.30;99.90
1594;DHT22;790;47.000;16.084;2023-02-15T16:06:30;5.30;99.90
1594;DHT22;790;47.000;16.084;2023-02-15T16:09:09;5.10;99.90
1594;DHT22;790;47.000;16.084;2023-02-15T16:11:37;5.00;99.90
1594;DHT22;790;47.000;16.084;2023-02-15T16:14:12;4.80;99.90
1594;DHT22;790;47.000;16.084;2023-02-15T16:16:40;4.80;99.90
1594;DHT22;790;47.000;16.084;2023-02-15T16:19:18;4.60;99.90
1594;DHT22;790;47.000;16.084;2023-02-15T16:21:47;4.50;99.90
1594;DHT22;790;47.000;16.084;2023-02-15T16:24:22;4.50;99.90
1594;DHT22;790;47.000;16.084;2023-02-15T16:27:15;4.40;99.90
1594;DHT22;790;47.000;16.084;2023-02-15T16:29:47;4.40;99.90
1594;DHT22;790;47.000;16.084;2023-02-15T16:32:19;4.30;99.90
1594;DHT22;790;47.000;16.084;2023-02-15T16:34:54;4.20;99.90
1594;DHT22;790;47.000;16.084;2023-02-15T16:37:23;4.10;99.90
1594;DHT22;790;47.000;16.084;2023-02-15T16:39:54;4.10;99.90
1594;DHT22;790;47.000;16.084;2023-02-15T16:42:22;4.10;99.90
1594;DHT22;790;47.000;16.084;2023-02-15T16:44:55;4.00;99.90
1594;DHT22;790;47.000;16.084;2023-02-15T16:47:25;3.80;99.90
1594;DHT22;790;47.000;16.084;2023-02-15T16:49:55;3.80;99.90
1594;DHT22;790;47.000;16.084;2023-02-15T16:52:26;3.70;99.90
1594;DHT22;790;47.000;16.084;2023-02-15T16:54:56;3.60;99.90
1594;DHT22;790;47.000;16.084;2023-02-15T16:57:25;3.60;99.90
1594;DHT22;790;47.000;16.084;2023-02-15T17:00:00;3.50;99.90
1594;DHT22;790;47.000;16.084;2023-02-15T17:02:31;3.30;99.90
1594;DHT22;790;47.000;16.084;2023-02-15T17:05:16;3.30;99.90
1594;DHT22;790;47.000;16.084;2023-02-15T17:07:51;3.30;99.90
1594;DHT22;790;47.000;16.084;2023-02-15T17:10:30;3.30;99.90
1594;DHT22;790;47.000;16.084;2023-02-15T17:13:03;3.10;99.90
1594;DHT22;790;47.000;16.084;2023-02-15T17:15:33;3.10;99.90
1594;DHT22;790;47.000;16.084;2023-02-15T17:18:04;3.00;99.90
1594;DHT22;790;47.000;16.084;2023-02-15T17:20:33;3.00;99.90
1594;DHT22;790;47.000;16.084;2023-02-15T17:23:01;2.90;99.90
1594;DHT22;790;47.000;16.084;2023-02-15T17:25:36;2.90;99.90